Time;durP1;ratioP1;P1;durP2;ratioP2;P2;SDS_P1;SDS_P2;PMS_P1;PMS_P2;Temp;Humidity;BMP_temperature;BMP_pressure;BME280_temperature;BME280_humidity;BME280_pressure;Samples;Min_cycle;Max_cycle;Signal;HPM_P1;HPM_P2
2021/07/11 00:02:03;;;;;;;4.42;3.92;;;;;;;21.63;66.76;100298.66;1761739;81;20995;-76
2021/07/11 00:04:29;;;;;;;8.65;4.78;;;;;;;21.60;66.79;100299.92;1761895;81;20955;-75
2021/07/11 00:06:55;;;;;;;7.60;4.80;;;;;;;21.56;66.63;100297.39;1761775;81;21471;-76
2021/07/11 00:09:23;;;;;;;8.43;4.65;;;;;;;21.53;66.80;100288.42;1761957;81;20978;-75
2021/07/11 00:11:49;;;;;;;9.40;4.08;;;;;;;21.49;67.01;100285.88;1761746;81;20983;-75
2021/07/11 00:14:15;;;;;;;7.28;3.98;;;;;;;21.44;67.33;100280.86;1762104;81;20967;-76
2021/07/11 00:16:41;;;;;;;6.22;4.65;;;;;;;21.37;67.52;100279.56;1761836;81;20928;-74
2021/07/11 00:19:08;;;;;;;6.20;4.37;;;;;;;21.37;67.40;100280.91;1761787;81;21010;-76
2021/07/11 00:21:34;;;;;;;11.08;4.42;;;;;;;21.35;67.40;100281.64;1762289;81;20979;-76
2021/07/11 00:24:00;;;;;;;8.60;4.30;;;;;;;21.34;67.39;100284.02;1761796;81;21010;-76
2021/07/11 00:26:26;;;;;;;5.40;4.25;;;;;;;21.36;67.40;100285.97;1761934;81;20944;-76
2021/07/11 00:28:52;;;;;;;8.20;5.00;;;;;;;21.33;67.95;100290.45;1761808;81;20983;-76
2021/07/11 00:31:18;;;;;;;8.55;4.45;;;;;;;21.35;67.79;100287.02;1761940;81;21007;-76
2021/07/11 00:33:44;;;;;;;5.87;4.22;;;;;;;21.35;67.61;100289.72;1761897;81;20987;-75
2021/07/11 00:36:11;;;;;;;12.25;4.55;;;;;;;21.36;67.44;100290.01;1762109;81;21439;-76
2021/07/11 00:38:37;;;;;;;4.83;4.10;;;;;;;21.32;67.38;100284.75;1762177;81;20983;-76
2021/07/11 00:41:03;;;;;;;6.87;4.67;;;;;;;21.30;67.44;100286.86;1761791;81;21058;-76
2021/07/11 00:43:29;;;;;;;7.83;4.03;;;;;;;21.25;67.83;100286.70;1762034;81;20960;-76
2021/07/11 00:45:56;;;;;;;5.33;3.83;;;;;;;21.18;68.20;100283.55;1761617;81;21031;-76
2021/07/11 00:48:22;;;;;;;6.20;4.12;;;;;;;21.11;68.50;100278.73;1762035;81;21462;-76
2021/07/11 00:50:48;;;;;;;7.05;4.00;;;;;;;21.10;68.37;100286.51;1761415;81;20996;-75
2021/07/11 00:53:16;;;;;;;5.40;4.28;;;;;;;21.10;68.32;100279.78;1761789;81;21034;-76
2021/07/11 00:55:42;;;;;;;4.85;3.60;;;;;;;21.08;68.46;100284.55;1761720;81;20995;-75
2021/07/11 00:58:08;;;;;;;4.83;3.60;;;;;;;21.04;68.60;100283.36;1761801;81;20999;-75
2021/07/11 01:00:35;;;;;;;5.22;3.98;;;;;;;21.02;69.27;100283.27;1761925;81;20980;-76
2021/07/11 01:03:34;;;;;;;6.70;3.87;;;;;;;21.02;69.11;100281.40;1761869;81;21046;-76
2021/07/11 01:06:03;;;;;;;5.67;3.52;;;;;;;21.04;68.66;100275.81;1761527;81;20996;-75
2021/07/11 01:09:05;;;;;;;6.97;4.00;;;;;;;21.01;69.43;100274.38;1762066;81;21023;-76
2021/07/11 01:11:37;;;;;;;5.72;3.87;;;;;;;21.05;68.28;100270.20;1761744;81;21021;-76
2021/07/11 01:14:04;;;;;;;4.45;3.37;;;;;;;21.04;68.58;100277.97;1761208;81;21062;-75
2021/07/11 01:16:33;;;;;;;6.05;4.22;;;;;;;21.03;68.96;100282.22;1762151;81;20979;-76
2021/07/11 01:19:07;;;;;;;5.97;4.08;;;;;;;21.05;68.76;100280.95;1761647;81;20947;-76
2021/07/11 01:21:38;;;;;;;5.75;4.42;;;;;;;21.05;69.18;100275.58;1761476;81;20992;-76
2021/07/11 01:24:25;;;;;;;4.42;4.03;;;;;;;21.05;68.52;100276.11;1760352;81;21068;-76
2021/07/11 01:26:52;;;;;;;7.55;4.00;;;;;;;21.05;68.25;100278.27;1761369;81;20979;-76
2021/07/11 01:29:19;;;;;;;3.70;3.20;;;;;;;21.02;68.89;100271.98;1761848;81;21439;-76
2021/07/11 01:31:46;;;;;;;5.15;3.95;;;;;;;21.01;68.68;100271.69;1761520;81;20995;-75
2021/07/11 01:34:14;;;;;;;4.60;3.40;;;;;;;20.98;69.38;100269.45;1761642;81;21066;-76
2021/07/11 01:36:41;;;;;;;8.38;4.05;;;;;;;20.93;69.35;100271.96;1762094;81;20988;-76
2021/07/11 01:39:08;;;;;;;7.17;3.55;;;;;;;20.89;68.85;100265.38;1761655;81;21509;-75
2021/07/11 01:41:36;;;;;;;5.42;4.10;;;;;;;20.90;68.63;100263.80;1761641;81;21039;-76
2021/07/11 01:44:04;;;;;;;9.78;3.85;;;;;;;20.89;68.85;100262.70;1761701;81;20995;-76
2021/07/11 01:46:30;;;;;;;7.10;3.98;;;;;;;20.88;69.05;100263.72;1745802;81;21056;-75
2021/07/11 01:48:59;;;;;;;12.03;4.55;;;;;;;20.88;69.24;100270.45;1740376;82;20984;-75
2021/07/11 01:51:26;;;;;;;5.20;4.03;;;;;;;20.88;69.10;100262.38;1720056;82;20997;-75
2021/07/11 01:53:54;;;;;;;5.15;4.45;;;;;;;20.86;68.86;100266.64;1740231;82;21004;-75
2021/07/11 01:56:23;;;;;;;6.90;3.52;;;;;;;20.87;68.97;100270.97;1719461;82;21007;-76
2021/07/11 01:58:50;;;;;;;6.08;3.92;;;;;;;20.80;69.32;100269.36;1739965;82;21009;-75
2021/07/11 02:01:18;;;;;;;6.72;4.67;;;;;;;20.81;69.15;100269.69;1740348;82;21008;-76
2021/07/11 02:03:45;;;;;;;4.10;3.70;;;;;;;20.83;69.36;100274.30;1739963;82;21072;-75
2021/07/11 02:06:13;;;;;;;9.05;4.15;;;;;;;20.83;69.22;100274.30;1740283;82;20973;-76
2021/07/11 02:08:42;;;;;;;10.72;4.85;;;;;;;20.80;69.11;100270.21;1740393;82;20988;-76
2021/07/11 02:11:12;;;;;;;6.37;4.60;;;;;;;20.77;69.00;100259.86;1738084;82;21570;-75
2021/07/11 02:13:50;;;;;;;;;;;;;;;20.77;69.06;100260.39;1742732;82;21027;-77
2021/07/11 02:16:42;;;;;;;5.35;3.83;;;;;;;20.75;69.71;100262.49;1740228;82;20135;-76
2021/07/11 02:19:09;;;;;;;9.38;4.85;;;;;;;20.70;69.32;100261.80;1739677;82;21020;-76
2021/07/11 02:21:39;;;;;;;7.75;4.62;;;;;;;20.69;69.35;100254.25;1740441;82;20952;-76
2021/07/11 02:24:06;;;;;;;7.22;4.20;;;;;;;20.69;69.14;100260.97;1740206;82;20977;-76
2021/07/11 02:26:36;;;;;;;4.42;4.03;;;;;;;20.62;69.62;100256.15;1740534;82;21039;-76
2021/07/11 02:29:05;;;;;;;5.17;4.08;;;;;;;20.53;69.90;100262.84;1739954;82;21044;-76
2021/07/11 02:31:36;;;;;;;8.70;4.70;;;;;;;20.49;70.20;100261.08;1740172;82;21048;-76
2021/07/11 02:34:04;;;;;;;9.98;4.75;;;;;;;20.48;69.76;100258.59;1740000;82;20969;-76
2021/07/11 02:36:32;;;;;;;11.88;5.00;;;;;;;20.45;70.62;100267.09;1740213;82;21008;-76
2021/07/11 02:39:12;;;;;;;9.58;4.08;;;;;;;20.48;69.93;100270.69;1740009;82;20992;-76
2021/07/11 02:41:43;;;;;;;7.30;5.03;;;;;;;20.48;69.70;100270.69;1739795;82;21595;-76
2021/07/11 02:44:13;;;;;;;6.00;4.33;;;;;;;20.45;69.77;100272.47;1739134;82;21455;-76
2021/07/11 02:46:44;;;;;;;6.65;4.90;;;;;;;20.38;70.21;100274.38;1755355;81;21511;-76
2021/07/11 02:49:15;;;;;;;8.10;3.92;;;;;;;20.34;70.48;100279.38;1761929;81;21546;-76
2021/07/11 02:51:46;;;;;;;10.85;4.60;;;;;;;20.33;70.50;100279.05;1761937;81;21011;-76
2021/07/11 02:54:18;;;;;;;7.22;4.40;;;;;;;20.32;70.69;100281.97;1762134;81;21541;-75
2021/07/11 02:56:48;;;;;;;7.85;4.40;;;;;;;20.31;70.65;100285.67;1762018;81;20975;-76
2021/07/11 02:59:15;;;;;;;5.42;4.87;;;;;;;20.23;70.88;100280.87;1762004;81;20964;-76
2021/07/11 03:01:43;;;;;;;5.95;4.33;;;;;;;20.24;70.31;100283.03;1762296;81;20956;-76
2021/07/11 03:04:14;;;;;;;6.15;4.42;;;;;;;20.22;70.96;100280.55;1761819;81;21062;-77
2021/07/11 03:06:40;;;;;;;7.35;4.03;;;;;;;20.23;71.05;100282.21;1761876;81;21498;-76
2021/07/11 03:09:07;;;;;;;6.75;4.78;;;;;;;20.27;70.75;100283.42;1761677;81;20985;-76
2021/07/11 03:11:41;;;;;;;5.45;4.15;;;;;;;20.35;70.68;100282.35;1761811;81;21039;-76
2021/07/11 03:14:10;;;;;;;9.48;4.62;;;;;;;20.41;70.42;100277.98;1761659;81;20978;-77
2021/07/11 03:16:48;;;;;;;8.98;4.50;;;;;;;20.40;70.47;100274.48;1762219;81;21007;-76
2021/07/11 03:19:15;;;;;;;5.83;4.20;;;;;;;20.42;70.21;100276.93;1761981;81;21011;-76
2021/07/11 03:21:49;;;;;;;10.32;4.30;;;;;;;20.47;70.27;100278.45;1762102;81;21498;-76
2021/07/11 03:24:20;;;;;;;7.65;4.78;;;;;;;20.51;70.42;100281.00;1734525;81;20976;-76
2021/07/11 03:26:46;;;;;;;;;;;;;;;20.57;70.35;100285.58;1764560;81;20967;-76
2021/07/11 03:29:42;;;;;;;9.00;4.78;;;;;;;20.60;70.29;100277.07;1762018;81;20129;-76
2021/07/11 03:32:10;;;;;;;6.62;4.42;;;;;;;20.61;70.06;100278.70;1761242;81;21011;-77
2021/07/11 03:34:47;;;;;;;7.40;4.50;;;;;;;20.62;70.75;100283.03;1762110;81;20947;-77
2021/07/11 03:37:15;;;;;;;5.12;4.60;;;;;;;20.66;70.20;100281.58;1761726;81;21003;-76
2021/07/11 03:39:48;;;;;;;8.93;4.03;;;;;;;20.68;70.38;100280.00;1761886;81;20943;-77
2021/07/11 03:42:18;;;;;;;5.40;4.25;;;;;;;20.76;70.14;100276.23;1761673;81;21538;-77
2021/07/11 03:45:02;;;;;;;5.50;4.47;;;;;;;20.84;69.98;100274.09;1762013;81;20955;-77
2021/07/11 03:47:31;;;;;;;7.20;5.15;;;;;;;20.91;69.71;100280.77;1760329;81;21024;-77
2021/07/11 03:49:58;;;;;;;5.28;4.78;;;;;;;20.95;69.46;100282.81;1760965;81;21022;-76
2021/07/11 03:52:28;;;;;;;8.53;4.65;;;;;;;21.01;69.13;100281.64;1761803;81;21055;-76
2021/07/11 03:55:00;;;;;;;6.97;5.20;;;;;;;21.04;69.36;100283.36;1762271;81;20979;-76
2021/07/11 03:57:29;;;;;;;6.55;4.58;;;;;;;21.08;69.13;100280.52;1761805;81;20971;-76
2021/07/11 03:59:56;;;;;;;5.60;4.92;;;;;;;21.12;69.50;100277.70;1761483;81;21002;-76
2021/07/11 04:02:27;;;;;;;7.97;4.70;;;;;;;21.22;68.91;100281.76;1762157;81;21479;-76
2021/07/11 04:04:57;;;;;;;7.28;4.90;;;;;;;21.30;68.76;100284.17;1761972;81;21438;-76
2021/07/11 04:07:26;;;;;;;8.75;4.83;;;;;;;21.35;69.03;100282.98;1762030;81;21034;-77
2021/07/11 04:09:55;;;;;;;9.85;4.58;;;;;;;21.43;69.22;100284.58;1761936;81;21022;-75
2021/07/11 04:12:21;;;;;;;10.50;4.87;;;;;;;21.42;68.44;100279.72;1761634;81;21079;-76
2021/07/11 04:14:47;;;;;;;10.32;4.80;;;;;;;21.50;68.72;100282.66;1762023;81;20983;-76
2021/07/11 04:17:21;;;;;;;9.73;5.25;;;;;;;21.49;68.34;100283.19;1761582;81;21573;-76
2021/07/11 04:19:49;;;;;;;9.33;4.47;;;;;;;21.53;68.17;100276.30;1762176;81;20995;-76
2021/07/11 04:22:19;;;;;;;6.28;5.42;;;;;;;21.57;68.30;100276.67;1762129;81;20995;-77
2021/07/11 04:24:48;;;;;;;7.67;5.25;;;;;;;21.61;68.29;100278.70;1762205;81;20952;-76
2021/07/11 04:27:15;;;;;;;8.53;4.80;;;;;;;21.71;68.11;100278.17;1761884;81;21035;-77
2021/07/11 04:29:43;;;;;;;6.45;4.92;;;;;;;21.79;67.90;100280.57;1761873;81;20991;-76
2021/07/11 04:32:10;;;;;;;10.10;5.70;;;;;;;21.84;67.68;100277.21;1761506;81;21050;-76
2021/07/11 04:34:39;;;;;;;10.00;5.45;;;;;;;21.94;67.50;100282.88;1761840;81;21019;-76
2021/07/11 04:37:07;;;;;;;9.53;5.03;;;;;;;22.01;67.28;100281.44;1761644;81;21019;-76
2021/07/11 04:39:34;;;;;;;9.13;5.65;;;;;;;22.08;67.10;100276.27;1762020;81;21490;-77
2021/07/11 04:42:01;;;;;;;7.83;5.20;;;;;;;22.32;66.73;100279.09;1761716;81;21038;-76
2021/07/11 04:44:29;;;;;;;6.37;5.10;;;;;;;22.32;66.73;100279.09;1761824;81;21011;-76
2021/07/11 04:46:56;;;;;;;9.15;4.62;;;;;;;22.44;66.49;100278.64;1761566;81;21011;-76
2021/07/11 04:49:25;;;;;;;8.45;5.42;;;;;;;22.52;66.10;100279.64;1761626;81;21035;-76
2021/07/11 04:51:56;;;;;;;7.35;5.45;;;;;;;22.61;66.04;100282.83;1761815;81;21002;-76
2021/07/11 04:54:25;;;;;;;8.65;5.53;;;;;;;22.74;65.76;100281.83;1761779;81;21027;-76
2021/07/11 04:56:51;;;;;;;9.30;5.47;;;;;;;22.82;65.45;100286.08;1762103;81;21454;-76
2021/07/11 04:59:17;;;;;;;9.95;6.03;;;;;;;22.92;65.37;100289.83;1761585;81;21043;-77
2021/07/11 05:01:43;;;;;;;7.47;4.97;;;;;;;22.95;64.46;100285.34;1761987;81;20986;-76
2021/07/11 05:04:10;;;;;;;8.95;5.78;;;;;;;23.07;64.46;100288.58;1761926;81;20940;-76
2021/07/11 05:06:36;;;;;;;8.45;6.00;;;;;;;23.13;64.32;100289.00;1762016;81;21454;-76
2021/07/11 05:09:04;;;;;;;6.30;5.37;;;;;;;23.07;64.21;100292.63;1761933;81;20955;-76
2021/07/11 05:11:31;;;;;;;7.22;5.28;;;;;;;23.07;63.87;100287.23;1761686;81;21082;-76
2021/07/11 05:13:57;;;;;;;8.80;5.55;;;;;;;23.08;63.99;100284.31;1761677;81;21023;-75
2021/07/11 05:16:23;;;;;;;10.15;5.58;;;;;;;23.16;64.28;100281.78;1761997;81;20999;-77
2021/07/11 05:18:49;;;;;;;7.67;5.45;;;;;;;23.13;62.92;100281.74;1762180;81;21447;-76
2021/07/11 05:21:16;;;;;;;12.23;6.33;;;;;;;23.19;63.13;100280.80;1761719;81;20948;-76
2021/07/11 05:23:42;;;;;;;7.67;5.72;;;;;;;23.24;62.88;100278.73;1762067;81;21031;-76
2021/07/11 05:26:08;;;;;;;11.22;5.80;;;;;;;23.36;62.81;100272.83;1761784;81;21446;-76
2021/07/11 05:28:35;;;;;;;7.58;4.87;;;;;;;23.48;62.89;100277.37;1762089;81;21023;-76
2021/07/11 05:31:01;;;;;;;6.95;5.00;;;;;;;23.49;61.72;100276.33;1761764;81;21463;-76
2021/07/11 05:33:28;;;;;;;9.38;4.97;;;;;;;23.54;62.00;100277.80;1761755;81;21011;-76
2021/07/11 05:35:54;;;;;;;9.80;5.20;;;;;;;23.57;62.01;100280.03;1762055;81;20995;-76
2021/07/11 05:38:21;;;;;;;11.12;5.25;;;;;;;23.63;61.89;100279.08;1762044;81;20995;-76
2021/07/11 05:40:47;;;;;;;8.05;5.28;;;;;;;23.77;61.55;100279.14;1762254;81;21019;-76
2021/07/11 05:43:13;;;;;;;12.00;5.45;;;;;;;23.87;61.19;100276.63;1761810;81;21525;-76
2021/07/11 05:45:40;;;;;;;9.65;5.12;;;;;;;23.96;60.69;100274.37;1762283;81;21468;-76
2021/07/11 05:48:06;;;;;;;6.08;4.90;;;;;;;24.10;60.67;100272.22;1761314;81;21000;-75
2021/07/11 05:50:32;;;;;;;11.38;5.58;;;;;;;24.20;60.23;100267.56;1761959;81;21007;-76
2021/07/11 05:52:59;;;;;;;10.10;5.20;;;;;;;24.35;60.08;100275.14;1762036;81;20999;-74
2021/07/11 05:55:25;;;;;;;6.28;5.67;;;;;;;24.36;58.71;100275.41;1762177;81;20944;-76
2021/07/11 05:57:51;;;;;;;7.92;4.70;;;;;;;24.38;58.43;100269.24;1761956;81;20987;-76
2021/07/11 06:00:18;;;;;;;6.90;5.10;;;;;;;24.46;58.62;100268.88;1761766;81;20940;-76
2021/07/11 06:02:45;;;;;;;5.83;4.78;;;;;;;24.51;58.16;100273.01;1762237;81;20979;-76
2021/07/11 06:05:11;;;;;;;11.75;4.90;;;;;;;24.63;58.79;100277.84;1761793;81;21450;-76
2021/07/11 06:07:38;;;;;;;16.32;5.53;;;;;;;24.83;58.56;100268.41;1762000;81;21445;-76
2021/07/11 06:10:07;;;;;;;5.70;4.42;;;;;;;24.98;58.30;100265.97;1761862;81;21038;-76
2021/07/11 06:12:34;;;;;;;9.25;5.20;;;;;;;25.05;57.39;100266.61;1761964;81;21019;-76
2021/07/11 06:15:07;;;;;;;6.90;5.00;;;;;;;25.01;54.89;100264.13;1761992;81;21018;-75
2021/07/11 06:17:34;;;;;;;10.32;4.78;;;;;;;25.23;56.41;100270.15;1762190;81;21007;-76
2021/07/11 06:20:09;;;;;;;5.80;4.30;;;;;;;25.34;55.86;100265.17;1762329;81;21046;-75
2021/07/11 06:22:36;;;;;;;6.60;4.05;;;;;;;25.42;56.15;100266.91;1762033;81;21464;-76
2021/07/11 06:25:08;;;;;;;8.70;4.83;;;;;;;25.45;54.89;100266.95;1761949;81;20971;-76
2021/07/11 06:27:39;;;;;;;7.05;4.22;;;;;;;25.57;55.60;100266.84;1761846;81;21016;-76
2021/07/11 06:30:10;;;;;;;6.05;4.53;;;;;;;25.69;55.12;100264.02;1762048;81;20987;-76
2021/07/11 06:32:39;;;;;;;7.17;4.12;;;;;;;25.85;54.95;100259.11;1760366;81;21039;-76
2021/07/11 06:35:08;;;;;;;5.00;4.37;;;;;;;26.00;54.22;100261.17;1761594;81;20947;-74
2021/07/11 06:37:34;;;;;;;12.37;4.85;;;;;;;26.16;54.03;100267.60;1762113;81;20972;-75
2021/07/11 06:40:01;;;;;;;6.12;3.58;;;;;;;26.36;54.37;100259.67;1762097;81;21485;-75
2021/07/11 06:42:33;;;;;;;8.45;4.45;;;;;;;26.57;53.83;100259.90;1761592;81;21018;-75
2021/07/11 06:44:59;;;;;;;9.48;5.15;;;;;;;26.61;51.30;100264.53;1762074;81;21457;-75
2021/07/11 06:47:25;;;;;;;7.08;4.00;;;;;;;26.77;52.47;100264.95;1761699;81;21035;-75
2021/07/11 06:49:52;;;;;;;7.22;4.40;;;;;;;26.89;52.15;100261.25;1761926;81;20932;-75
2021/07/11 06:52:18;;;;;;;5.72;3.85;;;;;;;26.96;51.81;100255.89;1761897;81;20992;-74
2021/07/11 06:54:44;;;;;;;9.00;4.35;;;;;;;27.03;50.97;100262.98;1762029;81;20979;-75
2021/07/11 06:57:10;;;;;;;11.05;5.00;;;;;;;27.18;51.34;100263.11;1761845;81;20998;-75
2021/07/11 06:59:37;;;;;;;6.80;4.25;;;;;;;27.32;50.99;100258.86;1761775;81;21015;-75
2021/07/11 07:02:03;;;;;;;10.38;4.55;;;;;;;27.39;50.47;100259.45;1761908;81;20959;-74
2021/07/11 07:04:31;;;;;;;11.95;4.25;;;;;;;27.38;49.02;100257.80;1761984;81;20995;-75
2021/07/11 07:06:57;;;;;;;11.93;4.08;;;;;;;27.41;49.88;100257.27;1762145;81;20975;-75
2021/07/11 07:09:33;;;;;;;8.75;4.87;;;;;;;27.51;49.68;100258.44;1761902;81;21019;-75
2021/07/11 07:11:59;;;;;;;9.50;5.12;;;;;;;27.68;49.84;100259.06;1762023;81;21066;-75
2021/07/11 07:14:25;;;;;;;6.12;4.33;;;;;;;27.84;49.93;100263.48;1762051;81;21498;-75
2021/07/11 07:16:52;;;;;;;5.87;4.00;;;;;;;27.91;49.15;100265.98;1761970;81;21478;-75
2021/07/11 07:19:18;;;;;;;7.33;4.53;;;;;;;27.87;47.47;100273.83;1761966;81;20948;-74
2021/07/11 07:21:44;;;;;;;6.08;4.72;;;;;;;27.95;47.29;100268.44;1761993;81;20999;-75
2021/07/11 07:24:10;;;;;;;10.98;4.08;;;;;;;28.06;48.08;100267.93;1761761;81;21514;-74
2021/07/11 07:26:37;;;;;;;5.20;4.20;;;;;;;28.15;48.39;100269.03;1762247;81;20957;-75
2021/07/11 07:29:03;;;;;;;7.65;4.33;;;;;;;28.12;47.19;100273.66;1761876;81;20995;-75
2021/07/11 07:31:30;;;;;;;9.05;4.55;;;;;;;28.14;47.61;100267.41;1761918;81;21019;-75
2021/07/11 07:33:56;;;;;;;7.40;3.85;;;;;;;28.17;47.79;100268.23;1761957;81;21019;-75
2021/07/11 07:36:22;;;;;;;6.83;5.17;;;;;;;28.23;48.12;100268.52;1761587;81;21506;-75
2021/07/11 07:38:48;;;;;;;5.28;3.60;;;;;;;28.31;47.98;100268.00;1761943;81;21050;-74
2021/07/11 07:41:14;;;;;;;9.78;4.80;;;;;;;28.42;47.90;100265.31;1761542;81;20983;-74
2021/07/11 07:43:40;;;;;;;12.23;4.50;;;;;;;28.30;47.59;100268.25;1761924;81;20999;-74
2021/07/11 07:46:07;;;;;;;279.05;12.28;;;;;;;28.46;47.85;100263.70;1761854;81;21018;-74
2021/07/11 07:48:33;;;;;;;7.92;3.80;;;;;;;28.43;47.27;100268.33;1761658;81;21019;-75
2021/07/11 07:50:59;;;;;;;23.27;4.22;;;;;;;28.53;47.05;100264.23;1762158;81;21423;-74
2021/07/11 07:53:25;;;;;;;11.68;4.22;;;;;;;28.69;47.01;100269.97;1762026;81;21011;-75
2021/07/11 07:55:52;;;;;;;17.73;4.30;;;;;;;28.55;45.23;100262.06;1762210;81;20971;-75
2021/07/11 07:58:18;;;;;;;4.87;3.83;;;;;;;28.77;46.62;100263.98;1761693;81;21022;-74
2021/07/11 08:00:44;;;;;;;10.53;3.95;;;;;;;28.95;46.63;100268.61;1762080;81;21019;-75
2021/07/11 08:03:28;;;;;;;5.92;3.98;;;;;;;29.09;46.03;100264.27;1761869;81;20999;-74
2021/07/11 08:05:55;;;;;;;4.08;3.45;;;;;;;29.17;45.55;100252.78;1761899;81;20948;-74
2021/07/11 08:08:21;;;;;;;6.53;4.45;;;;;;;29.19;45.15;100257.42;1761555;81;20948;-74
2021/07/11 08:10:47;;;;;;;17.77;4.42;;;;;;;29.22;45.98;100256.88;1761926;81;20983;-75
2021/07/11 08:13:13;;;;;;;7.75;4.50;;;;;;;29.05;45.74;100259.08;1761504;81;20991;-74
2021/07/11 08:15:39;;;;;;;4.35;3.95;;;;;;;29.22;45.69;100258.23;1761972;81;21450;-75
2021/07/11 08:18:06;;;;;;;6.17;3.35;;;;;;;29.31;46.01;100250.86;1762042;81;20940;-75
2021/07/11 08:20:35;;;;;;;7.42;3.83;;;;;;;29.42;45.87;100248.38;1761844;81;20997;-75
2021/07/11 08:23:01;;;;;;;15.85;4.10;;;;;;;29.53;45.79;100256.80;1762044;81;20975;-75
2021/07/11 08:25:27;;;;;;;6.90;4.00;;;;;;;29.62;45.41;100246.98;1761944;81;20988;-75
2021/07/11 08:27:54;;;;;;;9.20;4.12;;;;;;;29.60;45.11;100247.77;1762183;81;20947;-75
2021/07/11 08:30:23;;;;;;;9.48;3.87;;;;;;;29.60;45.24;100244.22;1761984;81;20978;-75
2021/07/11 08:32:49;;;;;;;13.13;4.22;;;;;;;29.64;45.35;100244.80;1761997;81;20995;-75
2021/07/11 08:35:16;;;;;;;7.22;3.95;;;;;;;29.84;45.84;100245.25;1761816;81;21534;-74
2021/07/11 08:37:44;;;;;;;4.95;4.30;;;;;;;29.90;45.39;100243.32;1762049;81;20995;-75
2021/07/11 08:40:12;;;;;;;7.55;4.12;;;;;;;29.96;45.01;100243.55;1761754;81;21479;-74
2021/07/11 08:42:40;;;;;;;9.90;4.08;;;;;;;30.02;45.04;100242.42;1761677;81;21581;-75
2021/07/11 08:45:09;;;;;;;6.62;4.00;;;;;;;30.08;44.82;100242.66;1762030;81;20984;-75
2021/07/11 08:47:40;;;;;;;5.03;4.03;;;;;;;30.08;44.32;100237.20;1762271;81;21019;-75
2021/07/11 08:50:14;;;;;;;5.53;3.83;;;;;;;30.22;44.95;100235.25;1762186;81;20973;-75
2021/07/11 08:52:44;;;;;;;12.73;3.72;;;;;;;30.38;44.80;100231.30;1761883;81;21058;-75
2021/07/11 08:55:21;;;;;;;;;;;;;;;30.55;44.34;100228.98;1764207;81;20980;-74
2021/07/11 08:57:57;;;;;;;6.92;4.00;;;;;;;30.67;44.30;100229.16;1761713;81;20094;-75
2021/07/11 09:00:31;;;;;;;5.90;3.90;;;;;;;30.74;44.03;100229.11;1761793;81;21474;-74
2021/07/11 09:02:57;;;;;;;4.67;3.70;;;;;;;30.95;43.81;100229.75;1762230;81;20983;-74
2021/07/11 09:05:41;;;;;;;10.25;4.08;;;;;;;30.86;41.97;100222.48;1761878;81;21486;-75
2021/07/11 09:08:24;;;;;;;9.30;4.70;;;;;;;31.03;43.13;100229.12;1761946;81;21051;-75
2021/07/11 09:10:56;;;;;;;11.20;4.53;;;;;;;31.14;43.10;100220.28;1761880;81;21494;-75
2021/07/11 09:13:27;;;;;;;4.67;3.87;;;;;;;31.22;43.20;100218.28;1761492;81;21028;-75
2021/07/11 09:15:57;;;;;;;6.62;3.90;;;;;;;31.44;42.97;100224.61;1761917;81;20972;-74
2021/07/11 09:18:35;;;;;;;5.35;3.47;;;;;;;31.56;41.29;100221.45;1761685;81;21486;-74
2021/07/11 09:21:08;;;;;;;7.15;4.20;;;;;;;31.76;42.50;100214.91;1762012;81;20983;-75
2021/07/11 09:23:37;;;;;;;8.45;3.60;;;;;;;31.69;40.21;100210.37;1762018;81;21478;-75
2021/07/11 09:26:13;;;;;;;5.65;4.53;;;;;;;31.99;41.46;100213.81;1762226;81;20983;-74
2021/07/11 09:28:53;;;;;;;8.25;3.90;;;;;;;31.87;41.02;100210.12;1761786;81;20982;-75
2021/07/11 09:31:23;;;;;;;10.60;4.10;;;;;;;32.07;41.89;100207.67;1761828;81;21059;-75
2021/07/11 09:33:59;;;;;;;5.47;3.90;;;;;;;32.19;41.68;100209.41;1762122;81;21027;-75
2021/07/11 09:36:28;;;;;;;5.67;4.08;;;;;;;32.38;40.85;100205.28;1761851;81;21011;-75
2021/07/11 09:39:01;;;;;;;6.55;4.00;;;;;;;32.01;40.13;100195.18;1762135;81;20975;-74
2021/07/11 09:41:33;;;;;;;6.78;4.70;;;;;;;32.07;41.21;100196.73;1761652;81;21520;-74
2021/07/11 09:44:04;;;;;;;13.55;4.65;;;;;;;32.00;40.31;100196.30;1761708;81;21071;-75
2021/07/11 09:46:34;;;;;;;8.93;3.85;;;;;;;32.13;40.98;100195.54;1761540;81;21020;-74
2021/07/11 09:49:01;;;;;;;11.60;4.53;;;;;;;32.37;40.87;100196.83;1743793;81;21075;-75
2021/07/11 09:51:30;;;;;;;8.10;4.40;;;;;;;32.46;41.04;100189.58;1739722;82;20991;-74
2021/07/11 09:54:10;;;;;;;5.30;4.20;;;;;;;32.57;40.48;100195.67;1740349;82;20982;-75
2021/07/11 09:56:41;;;;;;;5.17;3.85;;;;;;;32.78;40.27;100196.15;1739741;82;20998;-75
2021/07/11 09:59:11;;;;;;;13.40;4.42;;;;;;;33.00;39.84;100195.48;1740342;82;21023;-75
2021/07/11 10:01:41;;;;;;;9.75;4.47;;;;;;;33.06;40.16;100197.03;1740006;82;20981;-75
2021/07/11 10:04:09;;;;;;;8.65;3.90;;;;;;;33.19;39.40;100193.47;1740214;82;21029;-75
2021/07/11 10:06:37;;;;;;;11.80;4.67;;;;;;;33.31;39.63;100194.89;1740221;82;20999;-75
2021/07/11 10:09:08;;;;;;;5.97;4.67;;;;;;;33.03;39.16;100194.34;1740532;82;20949;-75
2021/07/11 10:11:36;;;;;;;11.35;4.20;;;;;;;32.94;39.32;100189.25;1740124;82;21928;-75
2021/07/11 10:14:03;;;;;;;9.20;5.25;;;;;;;33.07;39.40;100186.31;1740329;82;21047;-75
2021/07/11 10:16:30;;;;;;;9.33;4.50;;;;;;;33.15;38.84;100179.33;1739988;82;21479;-74
2021/07/11 10:19:02;;;;;;;11.43;4.00;;;;;;;33.30;39.76;100177.63;1740029;82;21508;-74
2021/07/11 10:21:33;;;;;;;7.90;4.45;;;;;;;33.25;39.02;100178.53;1739817;82;20972;-74
2021/07/11 10:24:01;;;;;;;11.63;5.30;;;;;;;33.43;39.55;100184.21;1740197;82;20941;-75
2021/07/11 10:26:41;;;;;;;9.60;4.37;;;;;;;33.63;39.82;100183.80;1739840;82;21463;-74
2021/07/11 10:29:17;;;;;;;7.83;4.60;;;;;;;33.84;38.58;100186.13;1740235;82;20972;-75
2021/07/11 10:31:52;;;;;;;6.58;4.15;;;;;;;34.02;37.98;100182.96;1740222;82;20976;-74
2021/07/11 10:34:28;;;;;;;5.45;3.62;;;;;;;34.13;37.34;100175.58;1740046;82;20974;-75
2021/07/11 10:36:55;;;;;;;9.08;4.72;;;;;;;34.26;37.18;100186.80;1740289;82;21025;-74
2021/07/11 10:39:21;;;;;;;4.72;3.98;;;;;;;34.35;36.52;100183.55;1740162;82;21515;-74
2021/07/11 10:41:53;;;;;;;10.32;4.40;;;;;;;34.18;35.99;100183.42;1740456;82;21425;-75
2021/07/11 10:44:26;;;;;;;5.55;4.78;;;;;;;34.34;37.51;100175.87;1739960;82;21539;-74
2021/07/11 10:46:56;;;;;;;7.47;3.77;;;;;;;34.49;37.51;100170.55;1740364;82;20996;-75
2021/07/11 10:49:32;;;;;;;5.83;4.62;;;;;;;34.50;37.25;100163.95;1758521;81;21023;-74
2021/07/11 10:52:05;;;;;;;9.95;4.25;;;;;;;34.44;36.60;100175.36;1761824;81;21051;-74
2021/07/11 10:54:52;;;;;;;6.53;4.25;;;;;;;34.44;37.28;100170.70;1761697;81;21483;-75
2021/07/11 10:57:34;;;;;;;6.50;3.87;;;;;;;34.54;36.96;100169.05;1761706;81;21451;-74
2021/07/11 11:00:20;;;;;;;10.38;4.95;;;;;;;34.30;33.89;100167.22;1761970;81;21494;-75
2021/07/11 11:02:51;;;;;;;14.85;4.28;;;;;;;34.16;35.61;100154.92;1761886;81;20990;-74
2021/07/11 11:05:39;;;;;;;12.30;3.58;;;;;;;34.16;36.15;100152.74;1761142;81;20998;-75
2021/07/11 11:08:11;;;;;;;8.70;3.95;;;;;;;33.89;35.83;100153.05;1761742;81;20995;-74
2021/07/11 11:10:41;;;;;;;7.47;3.72;;;;;;;33.63;37.45;100148.14;1761726;81;21054;-74
2021/07/11 11:13:25;;;;;;;3.92;3.52;;;;;;;33.68;37.68;100148.03;1761576;81;21593;-75
2021/07/11 11:16:00;;;;;;;6.53;3.77;;;;;;;33.94;36.95;100144.70;1761900;81;21474;-74
2021/07/11 11:18:38;;;;;;;7.75;3.95;;;;;;;34.11;36.02;100142.68;1761993;81;20983;-75
2021/07/11 11:21:16;;;;;;;13.72;4.70;;;;;;;34.31;36.61;100138.63;1762352;81;20991;-75
2021/07/11 11:23:54;;;;;;;8.60;4.20;;;;;;;34.43;36.10;100134.73;1761962;81;20963;-75
2021/07/11 11:26:25;;;;;;;5.40;4.05;;;;;;;34.72;36.13;100130.70;1761854;81;20979;-74
2021/07/11 11:28:55;;;;;;;11.08;3.95;;;;;;;34.99;35.09;100122.25;1762077;81;20983;-74
2021/07/11 11:31:28;;;;;;;7.25;3.90;;;;;;;35.02;35.46;100117.48;1761712;81;21023;-74
2021/07/11 11:34:10;;;;;;;6.17;4.50;;;;;;;35.18;35.42;100118.44;1762099;81;20995;-75
2021/07/11 11:36:41;;;;;;;5.33;3.95;;;;;;;35.36;34.79;100118.73;1761892;81;20991;-74